Hartman, AR (72840)

2:56 PM CDT on April 19, 2015 (GMT -0500)
RVO CLARKSVILLE 64 W. | | Change Station
CLOSE
Current Station
Personal Weather Station
Location: Clarksville, AR
Elevation: 394 ft
Nearby Weather Stations
Active Advisory: Severe Thunderstorm Watch

Elev 394 ft 35.46 °N, 93.53 °W | Updated 14 seconds ago

Partly Cloudy
Partly Cloudy
79.0 °F
Feels Like 79 °F
N
6.2
Wind Variable Wind from South
Gusts 6.9 mph

Today
High -- | Low -- °F
--% Chance of Precip.
Yesterday
High -- | Low -- °F
Precip. -- in
6:37 AM 7:50 PM
New Moon, 2% visible
Pressure 29.64 in
Visibility 10.0 miles
Clouds Overcast 3400 ft
Heat Index 79 °F
Dew Point 52 °F
Humidity 39%
Rainfall 0.00 in
Snow Depth Not available.
UV 4.0 out of 12
Pollen 9.60 out of 12
Air Quality Not available.
Flu Activity Sporadic
METAR KRUE 191853Z AUTO 00000KT 10SM OVC034 24/13 A2966 RMK AO2 SLP037 T02390128

More Conditions Fewer Conditions

Pressure 29.64 in
Visibility 10.0 miles
Clouds Overcast 3400 ft
Heat Index 79 °F
Dew Point 52 °F
Humidity 39%
Rainfall 0.00 in
Snow Depth Not available.
UV 4.0 out of 12
Pollen 9.60 out of 12
Air Quality Not available.
Flu Activity Sporadic
METAR KRUE 191853Z AUTO 00000KT 10SM OVC034 24/13 A2966 RMK AO2 SLP037 T02390128

More Conditions Fewer Conditions

10-Day Weather Forecast

Almanac

Astronomy

Apr. 19, 2015 Rise Set
Actual Time
Civil Twilight
Nautical Twilight
Astronomical Twilight
Moon
Length of Visible Light
Length of Day
Tomorrow will be .
, % of the Moon is Illuminated

Today's Extremes

State Highs State Lows

Community

WunderPhotos

Upload Photos

1,814,950 photos uploaded!

WunderBlogs® & News

Nearby

Air Quality

  Air Quality AQ Index Pollutant
Not available.

Snow Depth

Station Depth Elevation

Earthquake Activity

City Distance Mag. Time & Date
Minimum magnitude displayed is 2.5.

Coastal Water Temperatures

Place Temperature

Stations

Nearby Weather Stations

Station Location Temp. Windchill Dew Point Humidity Wind Precip. Elev Updated Type
                   
Severe Thunderstorm Watch
Statement as of 2:43 PM CDT on April 19, 2015

Severe Thunderstorm Watch 80 remains in effect until 800 PM CDT
for the following locations


AR
. Arkansas counties included are

Baxter Benton Boone
Carroll Conway Crawford
Faulkner Franklin Garland
Grant Hot Spring Johnson
Logan Madison Marion
Montgomery Newton Perry
Polk Pope Pulaski
Saline Scott Searcy
Sebastian Van Buren Washington
Yell